createdAt,value
2019-04-23T00:02:05.327Z,85.70
2019-04-23T00:04:38.566Z,85.50
2019-04-23T00:07:15.818Z,85.40
2019-04-23T00:09:40.958Z,85.40
2019-04-23T00:12:13.104Z,85.20
2019-04-23T00:14:45.907Z,85.00
2019-04-23T00:17:17.905Z,84.90
2019-04-23T00:19:39.731Z,84.90
2019-04-23T00:22:13.862Z,84.70
2019-04-23T00:25:11.941Z,84.50
2019-04-23T00:29:53.820Z,84.30
2019-04-23T00:34:51.442Z,84.10
2019-04-23T00:37:32.717Z,83.80
2019-04-23T00:39:46.794Z,83.60
2019-04-23T00:42:25.879Z,83.50
2019-04-23T00:47:22.396Z,83.30
2019-04-23T00:49:51.629Z,83.20
2019-04-23T00:52:24.370Z,83.00
2019-04-23T00:54:49.119Z,83.00
2019-04-23T00:57:27.193Z,83.00
2019-04-23T00:59:57.745Z,82.80
2019-04-23T01:02:16.712Z,82.50
2019-04-23T01:04:47.998Z,83.30
2019-04-23T01:07:21.552Z,82.50
2019-04-23T01:09:55.977Z,82.50
2019-04-23T01:12:25.734Z,82.50
2019-04-23T01:14:48.690Z,82.40
2019-04-23T01:17:30.346Z,82.40
2019-04-23T01:19:54.837Z,82.30
2019-04-23T01:22:06.669Z,82.40
2019-04-23T01:24:40.379Z,82.40
2019-04-23T01:27:49.615Z,82.40
2019-04-23T01:30:15.886Z,82.40
2019-04-23T01:32:34.847Z,82.40
2019-04-23T01:37:41.186Z,82.30
2019-04-23T01:40:11.851Z,82.30
2019-04-23T01:42:44.238Z,82.30
2019-04-23T01:45:27.402Z,82.40
2019-04-23T01:47:54.917Z,82.30
2019-04-23T01:50:14.320Z,82.30
2019-04-23T01:52:50.603Z,82.30
2019-04-23T01:55:17.195Z,82.40
2019-04-23T01:57:46.581Z,82.40
2019-04-23T02:00:20.248Z,82.20
2019-04-23T02:03:04.346Z,82.50
2019-04-23T02:05:36.307Z,82.50
2019-04-23T02:13:11.311Z,82.50
2019-04-23T02:15:53.524Z,82.50
2019-04-23T02:18:43.921Z,82.50
2019-04-23T02:21:10.533Z,82.50
2019-04-23T02:26:03.237Z,82.70
2019-04-23T02:28:38.857Z,82.60
2019-04-23T02:31:21.499Z,82.50
2019-04-23T02:33:43.355Z,82.50
2019-04-23T02:41:13.102Z,82.90
2019-04-23T02:46:06.109Z,82.70
2019-04-23T02:48:56.292Z,82.80
2019-04-23T02:51:10.899Z,82.80
2019-04-23T02:56:15.116Z,83.00
2019-04-23T02:58:42.354Z,83.10
2019-04-23T03:01:25.573Z,83.20
2019-04-23T03:03:59.811Z,83.40
2019-04-23T03:11:18.341Z,83.60
2019-04-23T03:16:31.769Z,83.60
2019-04-23T03:18:56.277Z,83.70
2019-04-23T03:26:55.714Z,84.00
2019-04-23T03:29:25.130Z,84.00
2019-04-23T03:35:09.168Z,83.90
2019-04-23T03:36:13.856Z,84.00
2019-04-23T03:38:56.032Z,84.00
2019-04-23T03:44:09.301Z,84.00
2019-04-23T03:46:41.765Z,83.90
2019-04-23T03:48:59.536Z,84.00
2019-04-23T03:51:33.778Z,83.90
2019-04-23T03:54:16.765Z,83.90
2019-04-23T03:56:50.008Z,84.10
2019-04-23T03:59:27.127Z,84.00
2019-04-23T04:01:38.937Z,84.00
2019-04-23T04:06:43.143Z,83.80
2019-04-23T04:09:17.775Z,83.80
2019-04-23T04:11:44.978Z,83.70
2019-04-23T04:14:36.815Z,83.40
2019-04-23T04:16:42.613Z,83.20
2019-04-23T04:19:19.901Z,83.50
2019-04-23T04:21:41.383Z,83.10
2019-04-23T04:24:22.279Z,82.30
2019-04-23T04:26:51.771Z,82.70
2019-04-23T04:29:32.485Z,82.50
2019-04-23T04:31:47.762Z,82.30
2019-04-23T04:34:33.022Z,82.20
2019-04-23T04:36:53.420Z,82.20
2019-04-23T04:39:06.061Z,81.90
2019-04-23T04:41:43.412Z,81.50
2019-04-23T04:49:17.047Z,80.40
2019-04-23T04:51:51.877Z,80.10
2019-04-23T04:59:11.881Z,79.10
2019-04-23T05:01:39.592Z,79.20
2019-04-23T05:06:56.915Z,78.90
2019-04-23T05:09:31.886Z,78.50
2019-04-23T05:11:52.343Z,78.10
2019-04-23T05:16:47.373Z,77.50
2019-04-23T05:19:29.347Z,76.90
2019-04-23T05:21:53.952Z,76.60
2019-04-23T05:24:21.420Z,76.20
2019-04-23T05:26:37.528Z,75.30
2019-04-23T05:31:49.176Z,73.90
2019-04-23T05:34:17.544Z,73.30
2019-04-23T05:36:54.228Z,72.60
2019-04-23T05:39:31.716Z,72.30
2019-04-23T05:41:45.579Z,71.50
2019-04-23T05:44:21.271Z,71.10
2019-04-23T05:47:11.472Z,70.70
2019-04-23T05:49:22.649Z,70.00
2019-04-23T05:57:01.717Z,67.70
2019-04-23T06:09:25.245Z,64.40
2019-04-23T06:14:50.835Z,63.90
2019-04-23T06:17:16.390Z,63.70
2019-04-23T06:19:46.029Z,62.90
2019-04-23T06:24:48.841Z,62.20
2019-04-23T06:27:20.173Z,61.80
2019-04-23T06:29:43.279Z,60.90
2019-04-23T06:34:50.102Z,59.30
2019-04-23T06:37:16.043Z,59.00
2019-04-23T06:39:48.326Z,58.90
2019-04-23T06:42:14.557Z,58.40
2019-04-23T06:44:54.939Z,57.90
2019-04-23T06:49:54.613Z,56.20
2019-04-23T06:52:21.781Z,55.30
2019-04-23T06:54:56.181Z,55.20
2019-04-23T07:00:27.670Z,54.50
2019-04-23T07:02:44.299Z,53.80
2019-04-23T07:10:13.110Z,52.60
2019-04-23T07:12:44.603Z,52.00
2019-04-23T07:17:39.626Z,51.30
2019-04-23T07:20:13.200Z,50.10
2019-04-23T07:22:46.850Z,50.00
2019-04-23T07:25:12.859Z,49.90
2019-04-23T07:27:41.106Z,49.90
2019-04-23T07:30:16.446Z,50.10
2019-04-23T07:32:43.101Z,49.50
2019-04-23T07:35:13.244Z,49.80
2019-04-23T07:37:48.895Z,49.60
2019-04-23T07:43:01.250Z,49.50
2019-04-23T07:45:30.967Z,49.60
2019-04-23T07:48:12.436Z,49.80
2019-04-23T07:53:13.135Z,49.10
2019-04-23T07:58:23.775Z,49.30
2019-04-23T08:03:17.509Z,48.70
2019-04-23T08:05:39.639Z,48.10
2019-04-23T08:08:11.661Z,47.80
2019-04-23T08:11:11.005Z,47.70
2019-04-23T08:13:24.246Z,47.90
2019-04-23T08:15:48.072Z,47.50
2019-04-23T08:18:20.820Z,47.90
2019-04-23T08:20:49.056Z,47.80
2019-04-23T08:23:28.655Z,48.10
2019-04-23T08:26:13.495Z,48.30
2019-04-23T08:28:43.146Z,47.60
2019-04-23T08:30:59.115Z,47.50
2019-04-23T08:33:31.972Z,47.50
2019-04-23T08:36:11.785Z,47.60
2019-04-23T08:38:41.323Z,47.60
2019-04-23T08:41:24.542Z,47.70
2019-04-23T08:46:10.784Z,47.60
2019-04-23T08:48:41.737Z,47.70
2019-04-23T08:51:26.306Z,47.80
2019-04-23T08:56:11.939Z,48.10
2019-04-23T08:58:38.075Z,47.70
2019-04-23T09:01:12.681Z,47.80
2019-04-23T09:06:24.478Z,47.80
2019-04-23T09:08:37.368Z,47.90
2019-04-23T09:16:11.543Z,47.50
2019-04-23T09:18:38.385Z,47.50
2019-04-23T09:21:19.244Z,47.50
2019-04-23T09:26:08.395Z,47.50
2019-04-23T09:28:45.749Z,47.40
2019-04-23T09:31:38.612Z,47.50
2019-04-23T09:36:25.754Z,47.70
2019-04-23T09:38:54.194Z,47.40
2019-04-23T09:44:14.408Z,46.00
2019-04-23T09:46:53.120Z,45.20
2019-04-23T09:51:59.179Z,45.10
2019-04-23T09:54:42.201Z,44.90
2019-04-23T09:56:52.630Z,45.20
2019-04-23T09:59:32.341Z,45.20
2019-04-23T10:01:45.488Z,45.10
2019-04-23T10:04:08.763Z,45.10
2019-04-23T10:06:32.114Z,45.50
2019-04-23T10:09:01.724Z,45.40
2019-04-23T10:11:28.413Z,45.60
2019-04-23T10:13:58.613Z,45.00
2019-04-23T10:16:30.186Z,44.80
2019-04-23T10:18:57.505Z,44.90
2019-04-23T10:21:26.727Z,44.70
2019-04-23T10:23:55.217Z,43.60
2019-04-23T10:26:24.041Z,43.70
2019-04-23T10:28:55.948Z,43.80
2019-04-23T10:31:25.185Z,44.70
2019-04-23T10:33:55.770Z,43.80
2019-04-23T10:36:27.649Z,43.90
2019-04-23T10:39:02.248Z,44.30
2019-04-23T10:41:25.762Z,43.70
2019-04-23T10:43:56.801Z,43.60
2019-04-23T10:46:58.278Z,43.50
2019-04-23T10:49:47.713Z,43.50
2019-04-23T10:52:13.031Z,43.30
2019-04-23T10:54:41.249Z,43.00
2019-04-23T10:59:38.841Z,43.00
2019-04-23T11:02:28.890Z,43.00
2019-04-23T11:04:57.467Z,42.70
2019-04-23T11:07:27.042Z,42.60
2019-04-23T11:10:03.669Z,42.40
2019-04-23T11:12:32.462Z,42.40
2019-04-23T11:17:25.932Z,42.30
2019-04-23T11:19:58.247Z,42.40
2019-04-23T11:22:39.281Z,42.30
2019-04-23T11:24:59.962Z,42.30
2019-04-23T11:27:24.485Z,42.20
2019-04-23T11:30:00.174Z,41.90
2019-04-23T11:32:40.630Z,41.60
2019-04-23T11:37:56.474Z,40.90
2019-04-23T11:39:49.633Z,40.30
2019-04-23T11:44:56.511Z,39.10
2019-04-23T11:48:02.529Z,38.20
2019-04-23T11:50:03.941Z,37.60
2019-04-23T11:52:30.731Z,35.90
2019-04-23T11:55:00.901Z,34.60
2019-04-23T11:59:53.122Z,32.70
2019-04-23T12:02:49.908Z,32.10
2019-04-23T12:05:26.804Z,31.70
2019-04-23T12:07:59.565Z,30.90
2019-04-23T12:15:38.127Z,29.20
2019-04-23T12:20:49.030Z,28.60
2019-04-23T12:23:50.527Z,28.40
2019-04-23T12:26:13.743Z,28.20
2019-04-23T12:28:40.297Z,28.30
2019-04-23T12:31:09.103Z,28.50
2019-04-23T12:33:47.086Z,28.40
2019-04-23T12:36:21.341Z,28.60
2019-04-23T12:39:15.351Z,28.70
2019-04-23T12:41:36.238Z,28.80
2019-04-23T12:44:08.239Z,29.30
2019-04-23T12:46:39.855Z,29.30
2019-04-23T12:49:20.547Z,29.50
2019-04-23T12:51:40.262Z,29.50
2019-04-23T12:54:16.232Z,29.40
2019-04-23T12:56:48.836Z,29.30
2019-04-23T12:59:30.877Z,29.20
2019-04-23T13:02:03.353Z,29.00
2019-04-23T13:04:39.624Z,29.00
2019-04-23T13:06:57.972Z,29.10
2019-04-23T13:09:42.738Z,29.20
2019-04-23T13:12:05.763Z,29.50
2019-04-23T13:14:57.314Z,29.20
2019-04-23T13:17:29.698Z,28.50
2019-04-23T13:19:56.037Z,27.80
2019-04-23T13:22:57.984Z,27.20
2019-04-23T13:25:09.600Z,26.80
2019-04-23T13:27:54.270Z,26.50
2019-04-23T13:30:23.223Z,26.10
2019-04-23T13:32:56.331Z,25.90
2019-04-23T13:35:31.437Z,25.70
2019-04-23T13:37:54.786Z,25.80
2019-04-23T13:40:39.515Z,25.80
2019-04-23T13:43:17.342Z,26.30
2019-04-23T13:48:10.848Z,26.50
2019-04-23T13:50:57.642Z,26.40
2019-04-23T13:53:20.973Z,26.30
2019-04-23T13:55:37.977Z,26.00
2019-04-23T13:58:14.715Z,25.80
2019-04-23T14:03:19.748Z,25.40
2019-04-23T14:05:49.495Z,25.30
2019-04-23T14:08:33.705Z,25.40
2019-04-23T14:13:37.802Z,25.50
2019-04-23T14:21:03.616Z,26.10
2019-04-23T14:28:41.010Z,26.70
2019-04-23T14:36:17.793Z,27.10
2019-04-23T14:38:43.910Z,27.40
2019-04-23T14:44:02.058Z,27.70
2019-04-23T14:49:11.666Z,28.00
2019-04-23T14:54:15.873Z,28.10
2019-04-23T14:57:06.351Z,28.30
2019-04-23T14:59:07.082Z,28.50
2019-04-23T15:02:00.872Z,28.80
2019-04-23T15:04:27.309Z,28.90
2019-04-23T15:07:00.866Z,28.90
2019-04-23T15:09:27.794Z,29.00
2019-04-23T15:12:01.767Z,28.80
2019-04-23T15:14:36.116Z,28.90
2019-04-23T15:17:00.103Z,28.90
2019-04-23T15:22:13.651Z,28.90
2019-04-23T15:29:13.030Z,29.60
2019-04-23T15:32:03.146Z,29.90
2019-04-23T15:34:23.712Z,30.10
2019-04-23T15:37:15.343Z,30.30
2019-04-23T15:39:31.367Z,30.50
2019-04-23T15:44:56.930Z,30.90
2019-04-23T15:49:51.336Z,31.10
2019-04-23T15:52:20.785Z,31.40
2019-04-23T15:54:56.764Z,31.70
2019-04-23T15:57:32.362Z,31.90
2019-04-23T16:01:53.352Z,32.50
2019-04-23T16:04:21.806Z,32.80
2019-04-23T16:06:51.805Z,33.40
2019-04-23T16:09:59.810Z,33.40
2019-04-23T16:12:16.823Z,33.70
2019-04-23T16:15:03.739Z,34.00
2019-04-23T16:22:30.417Z,34.30
2019-04-23T16:25:06.805Z,34.40
2019-04-23T16:27:26.760Z,34.50
2019-04-23T16:32:52.425Z,34.50
2019-04-23T16:35:18.216Z,34.70
2019-04-23T16:37:47.145Z,34.80
2019-04-23T16:42:48.282Z,35.20
2019-04-23T16:45:15.235Z,35.40
2019-04-23T16:47:48.854Z,35.60
2019-04-23T16:52:43.351Z,36.00
2019-04-23T16:55:29.449Z,36.20
2019-04-23T17:00:24.461Z,36.40
2019-04-23T17:02:45.151Z,36.40
2019-04-23T17:05:18.025Z,36.40
2019-04-23T17:07:53.991Z,36.50
2019-04-23T17:12:52.843Z,36.70
2019-04-23T17:15:22.915Z,36.70
2019-04-23T17:17:46.927Z,36.70
2019-04-23T17:20:16.266Z,36.90
2019-04-23T17:22:46.921Z,36.90
2019-04-23T17:25:17.560Z,36.90
2019-04-23T17:30:26.309Z,36.80
2019-04-23T17:33:07.873Z,36.80
2019-04-23T17:35:30.171Z,37.40
2019-04-23T17:38:07.743Z,37.60
2019-04-23T17:40:30.632Z,37.70
2019-04-23T17:43:08.981Z,37.90
2019-04-23T17:48:30.597Z,38.20
2019-04-23T17:51:10.979Z,38.30
2019-04-23T17:58:37.282Z,38.70
2019-04-23T18:03:49.566Z,39.10
2019-04-23T18:06:21.297Z,39.30
2019-04-23T18:08:43.218Z,39.40
2019-04-23T18:13:46.499Z,39.50
2019-04-23T18:16:15.940Z,39.70
2019-04-23T18:18:56.093Z,39.70
2019-04-23T18:21:21.257Z,40.00
2019-04-23T18:24:13.165Z,39.80
2019-04-23T18:26:36.042Z,39.90
2019-04-23T18:29:16.425Z,40.10
2019-04-23T18:31:51.128Z,40.20
2019-04-23T18:34:14.994Z,40.20
2019-04-23T18:36:37.132Z,40.40
2019-04-23T18:39:18.729Z,40.70
2019-04-23T18:41:56.704Z,40.60
2019-04-23T18:49:22.279Z,41.10
2019-04-23T18:51:49.521Z,41.30
2019-04-23T18:54:14.872Z,41.50
2019-04-23T18:57:09.332Z,41.70
2019-04-23T18:59:24.763Z,42.00
2019-04-23T19:01:57.921Z,41.90
2019-04-23T19:04:54.412Z,42.30
2019-04-23T19:07:29.253Z,42.50
2019-04-23T19:10:13.656Z,42.70
2019-04-23T19:12:34.790Z,42.90
2019-04-23T19:15:06.113Z,43.10
2019-04-23T19:19:55.333Z,43.40
2019-04-23T19:24:53.418Z,43.70
2019-04-23T19:27:37.001Z,43.80
2019-04-23T19:29:58.483Z,44.00
2019-04-23T19:32:39.071Z,44.20
2019-04-23T19:35:04.450Z,44.20
2019-04-23T19:37:44.426Z,44.40
2019-04-23T19:40:20.982Z,44.60
2019-04-23T19:42:36.842Z,44.50
2019-04-23T19:44:53.880Z,44.50
2019-04-23T19:47:51.332Z,44.50
2019-04-23T19:49:56.829Z,44.40
2019-04-23T19:52:52.366Z,44.60
2019-04-23T19:55:21.509Z,44.90
2019-04-23T19:57:57.453Z,44.80
2019-04-23T20:00:31.189Z,44.90
2019-04-23T20:03:13.748Z,45.00
2019-04-23T20:05:23.444Z,45.10
2019-04-23T20:08:16.910Z,45.10
2019-04-23T20:10:28.489Z,45.20
2019-04-23T20:12:54.627Z,45.30
2019-04-23T20:15:32.727Z,45.40
2019-04-23T20:20:25.459Z,45.50
2019-04-23T20:23:02.097Z,45.60
2019-04-23T20:28:05.427Z,45.70
2019-04-23T20:30:43.815Z,45.80
2019-04-23T20:31:42.274Z,45.70
2019-04-23T20:33:48.552Z,46.00
2019-04-23T20:35:48.395Z,46.10
2019-04-23T20:40:53.983Z,46.20
2019-04-23T20:43:15.295Z,46.30
2019-04-23T20:45:56.965Z,46.40
2019-04-23T20:48:16.030Z,46.50
2019-04-23T20:50:48.954Z,46.60
2019-04-23T20:53:13.623Z,46.70
2019-04-23T20:58:38.944Z,47.00
2019-04-23T21:01:09.645Z,47.00
2019-04-23T21:06:06.930Z,47.10
2019-04-23T21:10:55.587Z,47.20
2019-04-23T21:13:50.679Z,47.40
2019-04-23T21:15:58.324Z,47.60
2019-04-23T21:20:56.053Z,47.90
2019-04-23T21:23:32.307Z,47.90
2019-04-23T21:26:08.299Z,48.00
2019-04-23T21:28:40.059Z,48.10
2019-04-23T21:31:06.335Z,48.20
2019-04-23T21:36:15.619Z,48.40
2019-04-23T21:41:39.636Z,48.70
2019-04-23T21:46:27.776Z,48.70
2019-04-23T21:49:14.721Z,48.90
2019-04-23T21:51:41.925Z,49.00
2019-04-23T21:56:31.249Z,49.20
2019-04-23T21:59:06.008Z,49.20
2019-04-23T22:16:38.603Z,50.00
2019-04-23T22:19:10.540Z,50.20
2019-04-23T22:21:43.021Z,50.30
2019-04-23T22:29:14.606Z,50.70
2019-04-23T22:31:37.795Z,50.80
2019-04-23T22:34:11.895Z,50.90
2019-04-23T22:36:44.545Z,51.10
2019-04-23T22:39:03.155Z,51.20
2019-04-23T22:46:50.913Z,51.60
2019-04-23T22:49:20.105Z,51.80
2019-04-23T22:51:52.437Z,52.00
2019-04-23T22:54:12.247Z,52.30
2019-04-23T22:56:44.341Z,52.30
2019-04-23T23:01:50.369Z,52.90
2019-04-23T23:04:24.083Z,52.20
2019-04-23T23:06:57.626Z,52.20
2019-04-23T23:09:34.242Z,52.20
2019-04-23T23:11:49.633Z,52.60
2019-04-23T23:14:24.310Z,52.90
2019-04-23T23:16:45.310Z,53.10
2019-04-23T23:22:00.316Z,53.30
2019-04-23T23:24:15.352Z,53.40
2019-04-23T23:26:49.810Z,53.50
2019-04-23T23:29:13.829Z,53.60
2019-04-23T23:31:52.037Z,53.80
2019-04-23T23:34:15.551Z,54.60
2019-04-23T23:36:54.968Z,54.00
2019-04-23T23:41:53.393Z,54.10
2019-04-23T23:44:36.699Z,54.30
2019-04-23T23:46:56.301Z,54.40
2019-04-23T23:49:17.189Z,54.40
2019-04-23T23:54:13.320Z,54.70
2019-04-23T23:56:58.861Z,54.70
2019-04-23T23:59:42.137Z,54.80
